Time;durP1;ratioP1;P1;durP2;ratioP2;P2;SDS_P1;SDS_P2;PMS_P1;PMS_P2;Temp;Humidity;BMP_temperature;BMP_pressure;BME280_temperature;BME280_humidity;BME280_pressure;Samples;Min_cycle;Max_cycle;Signal;HPM_P1;HPM_P2
2024/03/13 00:02:03;;;;;;;13.10;11.80;;;;;;;8.24;100.00;101264.28;5089706;28;20024;-39
2024/03/13 00:04:41;;;;;;;12.37;11.17;;;;;;;8.27;100.00;101271.97;5090553;28;20058;-39
2024/03/13 00:07:10;;;;;;;12.80;11.50;;;;;;;8.26;100.00;101271.13;5077236;28;20259;-39
2024/03/13 00:09:43;;;;;;;13.73;12.30;;;;;;;8.21;100.00;101260.16;5076637;28;20020;-39
2024/03/13 00:12:11;;;;;;;12.23;11.02;;;;;;;8.28;100.00;101270.91;5076612;28;20024;-39
2024/03/13 00:14:37;;;;;;;12.23;11.02;;;;;;;8.28;100.00;101262.84;5075980;28;20031;-39
2024/03/13 00:17:04;;;;;;;13.23;11.68;;;;;;;8.29;100.00;101266.34;5076160;28;20456;-39
2024/03/13 00:19:29;;;;;;;13.00;11.70;;;;;;;8.31;100.00;101267.00;5076528;28;20466;-39
2024/03/13 00:21:55;;;;;;;13.15;11.90;;;;;;;8.32;100.00;101266.78;5076463;28;20107;-39
2024/03/13 00:24:20;;;;;;;13.32;11.98;;;;;;;8.35;100.00;101268.25;5076151;28;20051;-39
2024/03/13 00:26:50;;;;;;;12.63;11.43;;;;;;;8.36;100.00;101269.91;5075827;28;20017;-39
2024/03/13 00:29:17;;;;;;;13.60;12.20;;;;;;;8.37;100.00;101268.91;5075513;28;20040;-39
2024/03/13 00:31:44;;;;;;;14.20;12.70;;;;;;;8.34;100.00;101267.41;5075402;28;20103;-39
2024/03/13 00:34:10;;;;;;;12.55;11.25;;;;;;;8.38;100.00;101276.75;5075941;28;20360;-39
2024/03/13 00:36:37;;;;;;;14.30;12.82;;;;;;;8.40;100.00;101273.88;5075635;28;20016;-39
2024/03/13 00:39:03;;;;;;;14.80;13.23;;;;;;;8.40;100.00;101280.09;5075315;28;20026;-39
2024/03/13 00:41:28;;;;;;;13.40;12.00;;;;;;;8.40;100.00;101281.97;5075204;28;20020;-39
2024/03/13 00:43:54;;;;;;;13.50;12.07;;;;;;;8.41;100.00;101284.44;5075506;28;20017;-39
2024/03/13 00:46:19;;;;;;;18.27;14.25;;;;;;;8.43;100.00;101286.94;5075442;28;20028;-39
2024/03/13 00:48:45;;;;;;;15.50;13.07;;;;;;;8.41;100.00;101284.44;5076210;28;20028;-39
2024/03/13 00:51:10;;;;;;;15.85;13.70;;;;;;;8.43;100.00;101282.38;5075610;28;20021;-39
2024/03/13 00:53:38;;;;;;;16.07;13.20;;;;;;;8.46;100.00;101295.44;5075325;28;20097;-39
2024/03/13 00:56:04;;;;;;;16.77;14.95;;;;;;;8.45;100.00;101287.56;5075475;28;20016;-39
2024/03/13 00:58:29;;;;;;;18.02;14.75;;;;;;;8.42;100.00;101282.59;5075767;28;20031;-39
2024/03/13 01:00:55;;;;;;;17.73;15.38;;;;;;;8.44;100.00;101281.34;5074904;28;20453;-39
2024/03/13 01:03:22;;;;;;;18.42;15.23;;;;;;;8.50;100.00;101285.91;5075449;28;20130;-39
2024/03/13 01:05:48;;;;;;;24.08;16.20;;;;;;;8.45;100.00;101280.31;5075263;28;20373;-39
2024/03/13 01:08:14;;;;;;;22.30;16.58;;;;;;;8.51;100.00;101284.88;5075294;28;20024;-39
2024/03/13 01:10:39;;;;;;;21.00;16.23;;;;;;;8.52;100.00;101291.91;5074972;28;20067;-39
2024/03/13 01:13:05;;;;;;;24.83;18.30;;;;;;;8.55;100.00;101282.59;5074973;28;20059;-39
2024/03/13 01:15:30;;;;;;;25.33;17.42;;;;;;;8.50;100.00;101272.44;5075059;28;20029;-39
2024/03/13 01:17:57;;;;;;;21.13;16.55;;;;;;;8.58;100.00;101282.16;5073572;28;20121;-39
2024/03/13 01:20:23;;;;;;;;;;;;;;;8.65;100.00;101274.91;5075769;28;20040;-39
2024/03/13 01:22:49;;;;;;;22.07;15.53;;;;;;;8.60;100.00;101284.69;5074681;28;19909;-39
2024/03/13 01:25:15;;;;;;;25.30;17.77;;;;;;;8.61;100.00;101280.94;5075252;28;20266;-39
2024/03/13 01:27:42;;;;;;;24.30;18.23;;;;;;;8.57;100.00;101271.59;5075337;28;20030;-39
2024/03/13 01:30:14;;;;;;;23.38;17.52;;;;;;;8.65;100.00;101282.19;5074537;28;20032;-39
2024/03/13 01:32:43;;;;;;;23.83;18.92;;;;;;;8.65;100.00;101277.63;5074649;28;20027;-39
2024/03/13 01:35:09;;;;;;;25.02;19.20;;;;;;;8.69;100.00;101278.88;5074393;28;20110;-39
2024/03/13 01:40:25;;;;;;;26.45;19.73;;;;;;;8.70;100.00;101268.91;5074676;28;20034;-39
2024/03/13 01:55:04;;;;;;;26.30;19.80;;;;;;;8.78;100.00;101274.06;5074939;28;20052;-39
2024/03/13 01:57:32;;;;;;;24.55;20.00;;;;;;;8.81;100.00;101265.56;5074347;28;20452;-39
2024/03/13 02:02:46;;;;;;;27.20;19.92;;;;;;;8.85;100.00;101272.22;5073978;28;20032;-39
2024/03/13 02:05:14;;;;;;;29.27;20.53;;;;;;;8.85;100.00;101272.22;5073607;28;20028;-39
2024/03/13 02:07:39;;;;;;;29.05;21.35;;;;;;;8.82;100.00;101261.84;5073498;28;20310;-39
2024/03/13 02:10:05;;;;;;;25.60;20.83;;;;;;;8.86;100.00;101276.56;5074117;28;20044;-39
2024/03/13 02:12:31;;;;;;;33.17;22.27;;;;;;;8.92;100.00;101270.31;5074256;28;20052;-39
2024/03/13 02:14:57;;;;;;;26.92;22.40;;;;;;;8.93;100.00;101272.00;5073950;28;20048;-39
2024/03/13 02:17:22;;;;;;;27.63;21.25;;;;;;;8.90;100.00;101264.31;5073680;28;20028;-39
2024/03/13 02:19:48;;;;;;;30.70;21.87;;;;;;;8.90;100.00;101264.31;5073413;28;20024;-39
2024/03/13 02:22:14;;;;;;;34.08;22.65;;;;;;;8.98;100.00;101271.38;5073882;28;20279;-39
2024/03/13 02:24:39;;;;;;;;;;;;;;;9.05;100.00;101265.97;5074357;28;20036;-39
2024/03/13 02:27:11;;;;;;;28.88;20.25;;;;;;;9.03;100.00;101271.56;5073608;28;19911;-39
2024/03/13 02:29:38;;;;;;;30.35;21.52;;;;;;;8.99;100.00;101257.66;5073087;28;20051;-39
2024/03/13 02:32:05;;;;;;;28.20;21.10;;;;;;;9.10;100.00;101277.78;5073204;28;20025;-39
2024/03/13 02:34:30;;;;;;;;;;;;;;;9.14;100.00;101272.78;5074448;28;20029;-39
2024/03/13 02:36:56;;;;;;;26.33;19.13;;;;;;;9.13;100.00;101279.25;5073487;28;19938;-39
2024/03/13 02:39:22;;;;;;;26.55;19.00;;;;;;;9.15;100.00;101275.28;5073467;28;20020;-39
2024/03/13 02:41:47;;;;;;;21.13;17.50;;;;;;;9.22;100.00;101277.94;5073712;28;20082;-39
2024/03/13 02:44:13;;;;;;;25.20;18.13;;;;;;;9.22;100.00;101264.44;5073134;28;20418;-39
2024/03/13 02:46:39;;;;;;;22.38;17.40;;;;;;;9.29;100.00;101262.59;5073366;28;20024;-39
2024/03/13 02:49:04;;;;;;;23.10;17.52;;;;;;;9.23;100.00;101253.47;5073715;28;20078;-39
2024/03/13 02:51:30;;;;;;;21.42;16.52;;;;;;;9.37;100.00;101267.75;5073361;28;20028;-39
2024/03/13 02:53:56;;;;;;;23.35;15.90;;;;;;;9.40;100.00;101264.59;5073673;28;20040;-39
2024/03/13 02:56:21;;;;;;;21.27;16.30;;;;;;;9.45;100.00;101267.50;5073292;28;20407;-39
2024/03/13 02:58:48;;;;;;;24.75;17.60;;;;;;;9.48;100.00;101266.25;5073108;28;20020;-39
2024/03/13 03:01:14;;;;;;;25.80;17.75;;;;;;;9.52;100.00;101262.09;5072922;28;20021;-39
2024/03/13 03:03:39;;;;;;;27.25;18.70;;;;;;;9.57;100.00;101272.25;5074046;28;20039;-39
2024/03/13 03:06:08;;;;;;;27.23;18.40;;;;;;;9.47;100.00;101254.63;5073167;28;20024;-39
2024/03/13 03:08:37;;;;;;;23.92;17.27;;;;;;;9.61;100.00;101270.75;5073934;28;20152;-39
2024/03/13 03:11:03;;;;;;;26.90;19.33;;;;;;;9.65;100.00;101270.13;5073348;28;20105;-39
2024/03/13 03:13:32;;;;;;;;;;;;;;;9.67;100.00;101272.63;5073500;28;20024;-39
2024/03/13 03:15:59;;;;;;;23.67;16.88;;;;;;;9.64;100.00;101279.28;5073055;28;19908;-39
2024/03/13 03:18:25;;;;;;;24.42;17.05;;;;;;;9.67;100.00;101278.84;5073567;28;20429;-39
2024/03/13 03:20:51;;;;;;;22.52;17.50;;;;;;;9.69;100.00;101276.75;5073332;28;20024;-38
2024/03/13 03:23:17;;;;;;;23.80;17.20;;;;;;;9.71;100.00;101276.53;5073585;28;20433;-38
2024/03/13 03:25:42;;;;;;;25.77;16.80;;;;;;;9.65;100.00;101269.28;5072699;28;20082;-39
2024/03/13 03:28:11;;;;;;;21.13;15.33;;;;;;;9.74;100.00;101281.50;5073859;28;20070;-38
2024/03/13 03:30:41;;;;;;;22.92;16.02;;;;;;;9.66;100.00;101262.84;5073556;28;20299;-39
2024/03/13 03:33:06;;;;;;;21.08;15.80;;;;;;;9.73;100.00;101280.69;5072743;28;20033;-39
2024/03/13 03:35:32;;;;;;;21.23;14.75;;;;;;;9.75;100.00;101283.16;5073112;28;20029;-39
2024/03/13 03:37:58;;;;;;;22.63;15.60;;;;;;;9.76;100.00;101284.81;5072944;28;20048;-39
2024/03/13 03:40:23;;;;;;;18.05;14.25;;;;;;;9.70;100.00;101282.97;5073926;28;20115;-39
2024/03/13 03:42:50;;;;;;;19.25;14.48;;;;;;;9.76;100.00;101292.91;5076615;28;20103;-39
2024/03/13 03:45:16;;;;;;;19.40;14.20;;;;;;;9.76;100.00;101295.63;5076349;28;20037;-39
2024/03/13 03:47:42;;;;;;;21.33;14.38;;;;;;;9.75;100.00;101291.25;5076539;28;20054;-39
2024/03/13 03:50:07;;;;;;;20.63;15.48;;;;;;;9.74;100.00;101281.50;5077086;28;20062;-39
2024/03/13 03:52:34;;;;;;;22.75;16.80;;;;;;;9.78;100.00;101288.97;5076437;28;20020;-39
2024/03/13 03:54:59;;;;;;;21.30;14.45;;;;;;;9.76;100.00;101291.06;5077103;28;20044;-39
2024/03/13 03:57:25;;;;;;;17.20;13.83;;;;;;;9.77;100.00;101292.72;5076403;28;20410;-39
2024/03/13 03:59:50;;;;;;;17.97;13.30;;;;;;;9.82;100.00;101299.34;5076994;28;20276;-39
2024/03/13 04:02:16;;;;;;;19.02;12.90;;;;;;;9.80;100.00;101291.44;5075968;28;20028;-39
2024/03/13 04:04:43;;;;;;;18.48;13.18;;;;;;;9.80;100.00;101291.44;5077108;28;20031;-39
2024/03/13 04:07:11;;;;;;;16.58;11.90;;;;;;;9.77;100.00;101291.91;5076024;28;20380;-39
2024/03/13 04:09:36;;;;;;;16.67;11.07;;;;;;;9.67;100.00;101275.31;5076753;28;20025;-39
2024/03/13 04:12:02;;;;;;;15.40;11.23;;;;;;;9.78;100.00;101294.38;5076307;28;20024;-39
2024/03/13 04:14:28;;;;;;;;;;;;;;;9.83;100.00;101301.00;5076544;28;20112;-39
2024/03/13 04:16:54;;;;;;;18.40;11.20;;;;;;;9.72;100.00;101291.72;5076218;28;19909;-39
2024/03/13 04:19:21;;;;;;;15.35;11.98;;;;;;;9.77;100.00;101303.53;5076249;28;20129;-39
2024/03/13 04:21:47;;;;;;;19.88;12.40;;;;;;;9.71;100.00;101292.72;5076453;28;20024;-39
2024/03/13 04:24:13;;;;;;;20.73;12.52;;;;;;;9.76;100.00;101301.03;5076206;28;20028;-38
2024/03/13 04:26:41;;;;;;;20.10;14.20;;;;;;;9.74;100.00;101300.41;5075573;28;20024;-39
2024/03/13 04:29:07;;;;;;;20.27;13.15;;;;;;;9.70;100.00;101293.78;5076406;28;20358;-39
2024/03/13 04:31:33;;;;;;;21.77;15.10;;;;;;;9.74;100.00;101300.41;5076526;28;20036;-39
2024/03/13 04:34:01;;;;;;;20.98;15.23;;;;;;;9.71;100.00;101299.00;5076161;28;20035;-39
2024/03/13 04:36:27;;;;;;;21.02;14.98;;;;;;;9.77;100.00;101314.34;5075622;28;20024;-39
2024/03/13 04:38:52;;;;;;;24.50;15.55;;;;;;;9.72;100.00;101305.22;5076151;28;20067;-39
2024/03/13 04:41:18;;;;;;;23.98;15.52;;;;;;;9.77;100.00;101310.81;5075271;28;20377;-39
2024/03/13 04:43:44;;;;;;;24.65;15.80;;;;;;;9.77;100.00;101318.91;5075766;28;20016;-39
2024/03/13 04:46:19;;;;;;;23.25;14.90;;;;;;;9.70;100.00;101305.41;5075923;28;20120;-39
2024/03/13 04:48:45;;;;;;;22.65;15.43;;;;;;;9.76;100.00;101322.63;5075356;28;20029;-39
2024/03/13 04:51:11;;;;;;;22.27;14.10;;;;;;;9.71;100.00;101300.84;5075323;28;20345;-39
2024/03/13 04:53:37;;;;;;;24.95;16.52;;;;;;;9.77;100.00;101324.31;5074795;28;20095;-39
2024/03/13 04:56:03;;;;;;;23.60;15.10;;;;;;;9.72;100.00;101316.03;5076213;28;20036;-39
2024/03/13 04:58:29;;;;;;;23.25;15.40;;;;;;;9.76;100.00;101322.63;5075286;28;20108;-39
2024/03/13 05:00:54;;;;;;;24.35;16.17;;;;;;;9.75;100.00;101324.50;5074926;28;20071;-40
2024/03/13 05:03:20;;;;;;;23.83;15.95;;;;;;;9.75;100.00;101326.38;5074587;28;20138;-40
2024/03/13 05:05:46;;;;;;;27.55;16.50;;;;;;;9.71;100.00;101319.75;5074519;28;20024;-40
2024/03/13 05:08:11;;;;;;;23.27;15.43;;;;;;;9.75;100.00;101323.69;5075352;28;20032;-40
2024/03/13 05:10:37;;;;;;;23.42;14.57;;;;;;;9.72;100.00;101324.13;5074708;28;20480;-40
2024/03/13 05:13:02;;;;;;;21.90;15.00;;;;;;;9.76;100.00;101334.28;5074616;28;20073;-40
2024/03/13 05:15:28;;;;;;;22.77;14.10;;;;;;;9.78;100.00;101336.75;5075305;28;20028;-40
2024/03/13 05:17:55;;;;;;;20.85;13.93;;;;;;;9.78;100.00;101342.16;5074562;28;20104;-40
2024/03/13 05:20:22;;;;;;;19.67;12.80;;;;;;;9.76;100.00;101341.53;5074552;28;20013;-40
2024/03/13 05:22:47;;;;;;;20.63;13.07;;;;;;;9.70;100.00;101337.81;5074153;28;20062;-40
2024/03/13 05:25:18;;;;;;;21.70;13.65;;;;;;;9.77;100.00;101349.44;5074494;28;20035;-40
2024/03/13 05:27:46;;;;;;;21.77;13.60;;;;;;;9.76;100.00;101345.09;5074957;28;20016;-40
2024/03/13 05:30:12;;;;;;;21.25;13.73;;;;;;;9.76;100.00;101344.22;5074393;28;20092;-39
2024/03/13 05:32:37;;;;;;;22.95;14.27;;;;;;;9.75;100.00;101345.28;5074267;28;20150;-40
2024/03/13 05:35:06;;;;;;;21.17;12.82;;;;;;;9.76;100.00;101350.50;5074492;28;20107;-39
2024/03/13 05:37:33;;;;;;;23.02;14.43;;;;;;;9.75;100.00;101348.81;5073844;28;20016;-39
2024/03/13 05:40:01;;;;;;;22.90;15.05;;;;;;;9.71;100.00;101347.59;5074611;28;20047;-39
2024/03/13 05:42:26;;;;;;;24.63;15.35;;;;;;;9.75;100.00;101353.38;5074548;28;20020;-40
2024/03/13 05:44:52;;;;;;;24.75;15.57;;;;;;;9.75;100.00;101361.47;5074094;28;20029;-39
2024/03/13 05:47:17;;;;;;;22.08;15.00;;;;;;;9.75;100.00;101353.38;5073706;28;20031;-39
2024/03/13 05:49:43;;;;;;;24.55;15.73;;;;;;;9.70;100.00;101351.31;5073650;28;20024;-39
2024/03/13 05:52:08;;;;;;;25.33;15.38;;;;;;;9.70;100.00;101342.38;5074097;28;20107;-39
2024/03/13 05:54:34;;;;;;;25.37;15.67;;;;;;;9.76;100.00;101355.03;5074019;28;20064;-39
2024/03/13 05:56:59;;;;;;;23.85;15.27;;;;;;;9.75;100.00;101353.38;5073787;28;20188;-40
2024/03/13 05:59:25;;;;;;;24.23;17.00;;;;;;;9.79;100.00;101365.41;5073814;28;20042;-39
2024/03/13 06:01:51;;;;;;;21.60;14.48;;;;;;;9.71;100.00;101346.75;5073666;28;20273;-40
2024/03/13 06:04:20;;;;;;;21.30;15.10;;;;;;;9.77;100.00;101360.25;5074098;28;20095;-39
2024/03/13 06:06:45;;;;;;;21.80;15.20;;;;;;;9.72;100.00;101348.44;5074181;28;20023;-39
2024/03/13 06:09:11;;;;;;;21.67;15.88;;;;;;;9.78;100.00;101356.50;5073688;28;20368;-39
2024/03/13 06:11:37;;;;;;;25.02;15.38;;;;;;;9.78;100.00;101364.59;5073892;28;20025;-39
2024/03/13 06:14:03;;;;;;;23.70;15.73;;;;;;;9.80;100.00;101373.31;5074038;28;20434;-39
2024/03/13 06:16:29;;;;;;;21.58;15.35;;;;;;;9.80;100.00;101377.88;5073719;28;20082;-39
2024/03/13 06:18:54;;;;;;;24.17;16.67;;;;;;;9.79;100.00;101382.47;5074015;28;20103;-39
2024/03/13 06:21:20;;;;;;;23.65;16.27;;;;;;;9.80;100.00;101381.41;5074451;28;20340;-39
2024/03/13 06:23:52;;;;;;;28.60;18.10;;;;;;;9.78;100.00;101375.41;5074525;28;20361;-39
2024/03/13 06:26:17;;;;;;;25.95;18.02;;;;;;;9.80;100.00;101383.28;5073677;28;20052;-39
2024/03/13 06:31:33;;;;;;;30.55;20.10;;;;;;;9.80;100.00;101375.19;5074208;28;20036;-39
2024/03/13 06:33:59;;;;;;;33.35;20.52;;;;;;;9.78;100.00;101372.69;5073504;28;20024;-39
2024/03/13 06:36:24;;;;;;;36.72;21.63;;;;;;;9.81;100.00;101379.56;5073515;28;20094;-39
2024/03/13 06:38:50;;;;;;;33.00;21.23;;;;;;;9.81;100.00;101384.97;5073221;28;20024;-39
2024/03/13 06:41:15;;;;;;;35.77;22.47;;;;;;;9.80;100.00;101383.28;5073476;28;20306;-39
2024/03/13 06:43:40;;;;;;;38.50;22.08;;;;;;;9.79;100.00;101393.25;5073774;28;20039;-39
2024/03/13 06:46:06;;;;;;;38.85;23.45;;;;;;;9.80;100.00;101389.50;5073994;28;20032;-39
2024/03/13 06:48:32;;;;;;;37.70;22.70;;;;;;;9.81;100.00;101393.06;5073991;28;20025;-39
2024/03/13 06:50:57;;;;;;;39.63;22.23;;;;;;;9.81;100.00;101384.97;5073875;28;20021;-39
2024/03/13 06:53:24;;;;;;;34.50;21.13;;;;;;;9.79;100.00;101390.56;5074025;28;20020;-39
2024/03/13 06:55:49;;;;;;;26.77;18.30;;;;;;;9.80;100.00;101388.69;5073243;28;20028;-39
2024/03/13 06:58:15;;;;;;;31.55;18.83;;;;;;;9.79;100.00;101390.56;5074214;28;20025;-39
2024/03/13 07:00:40;;;;;;;31.65;17.42;;;;;;;9.77;100.00;101392.66;5073920;28;20492;-39
2024/03/13 07:03:07;;;;;;;30.80;18.40;;;;;;;9.79;100.00;101397.84;5073077;28;20035;-39
2024/03/13 07:05:32;;;;;;;29.02;17.10;;;;;;;9.79;100.00;101389.72;5073503;28;20262;-39
2024/03/13 07:07:58;;;;;;;26.77;16.27;;;;;;;9.75;100.00;101393.91;5073271;28;20017;-39
2024/03/13 07:10:23;;;;;;;32.05;17.70;;;;;;;9.78;100.00;101401.59;5073819;28;20099;-39
2024/03/13 07:12:48;;;;;;;25.10;15.13;;;;;;;9.77;100.00;101389.13;5073604;28;20372;-39
2024/03/13 07:15:15;;;;;;;21.02;14.25;;;;;;;9.76;100.00;101399.09;5073991;28;20024;-39
2024/03/13 07:17:40;;;;;;;19.50;13.02;;;;;;;9.76;100.00;101399.09;5076891;28;20036;-39
2024/03/13 07:20:12;;;;;;;22.20;14.00;;;;;;;9.79;100.00;101397.84;5077751;28;20032;-39
2024/03/13 07:22:38;;;;;;;26.85;15.13;;;;;;;9.78;100.00;101396.19;5077346;28;20013;-39
2024/03/13 07:25:07;;;;;;;;;;;;;;;9.86;100.00;101403.22;5077460;28;20060;-39
2024/03/13 07:27:32;;;;;;;23.25;14.15;;;;;;;9.80;100.00;101397.63;5076853;28;19972;-39
2024/03/13 07:29:58;;;;;;;22.52;15.02;;;;;;;9.79;100.00;101387.03;5076883;28;20508;-39
2024/03/13 07:32:23;;;;;;;29.25;16.48;;;;;;;9.81;100.00;101384.97;5076776;28;20104;-39
2024/03/13 07:34:49;;;;;;;22.17;15.37;;;;;;;9.86;100.00;101393.25;5076773;28;20029;-39
2024/03/13 07:37:14;;;;;;;22.17;13.60;;;;;;;9.83;100.00;101399.06;5076884;28;20309;-39
2024/03/13 07:39:39;;;;;;;23.70;14.43;;;;;;;9.92;100.00;101397.81;5076306;28;20452;-40
2024/03/13 07:42:06;;;;;;;23.97;13.80;;;;;;;9.88;100.00;101403.84;5076838;28;20027;-39
2024/03/13 07:44:32;;;;;;;21.63;13.52;;;;;;;9.91;100.00;101406.97;5076959;28;20290;-40
2024/03/13 07:46:57;;;;;;;18.92;12.98;;;;;;;9.96;100.00;101409.03;5076751;28;20055;-39
2024/03/13 07:49:23;;;;;;;22.93;14.57;;;;;;;9.98;100.00;101410.44;5076712;28;20020;-39
2024/03/13 07:51:48;;;;;;;21.93;14.47;;;;;;;10.02;100.00;101414.38;5076388;28;20671;-39
2024/03/13 07:54:13;;;;;;;23.77;13.97;;;;;;;10.01;100.00;101420.00;5076658;28;20738;-39
2024/03/13 07:56:39;;;;;;;21.80;15.10;;;;;;;10.04;100.00;101423.09;5076221;28;20353;-39
2024/03/13 07:59:06;;;;;;;24.30;15.30;;;;;;;10.01;100.00;101415.44;5076663;28;20024;-40
2024/03/13 08:01:38;;;;;;;22.35;15.45;;;;;;;10.07;100.00;101428.09;5075928;28;20024;-40
2024/03/13 08:04:04;;;;;;;26.85;16.20;;;;;;;10.12;100.00;101429.31;5076637;28;20047;-40
2024/03/13 08:06:29;;;;;;;24.10;16.02;;;;;;;10.14;100.00;101432.63;5076244;28;20021;-40
2024/03/13 08:08:55;;;;;;;27.20;17.53;;;;;;;10.18;100.00;101444.69;5076331;28;20404;-39
2024/03/13 08:11:20;;;;;;;29.08;18.95;;;;;;;10.19;100.00;101444.47;5076224;28;20261;-39
2024/03/13 08:13:45;;;;;;;27.92;18.83;;;;;;;10.21;100.00;101444.25;5076136;28;20419;-39
2024/03/13 08:16:11;;;;;;;30.02;19.75;;;;;;;10.18;100.00;101445.50;5076162;28;20024;-39
2024/03/13 08:18:38;;;;;;;32.10;21.55;;;;;;;10.25;100.00;101456.34;5075822;28;20021;-39
2024/03/13 08:21:03;;;;;;;33.63;22.73;;;;;;;10.23;100.00;101450.28;5075900;28;20107;-39
2024/03/13 08:23:29;;;;;;;37.88;23.10;;;;;;;10.24;100.00;101460.91;5076637;28;20113;-40
2024/03/13 08:25:54;;;;;;;32.20;22.00;;;;;;;10.26;100.00;101458.00;5075859;28;20482;-39
2024/03/13 08:28:20;;;;;;;35.13;21.70;;;;;;;10.27;100.00;101459.66;5075127;28;20028;-39
2024/03/13 08:30:46;;;;;;;35.85;23.23;;;;;;;10.25;100.00;101464.47;5076665;28;20027;-40
2024/03/13 08:33:15;;;;;;;;;;;;;;;10.32;100.00;101462.53;5076210;28;20103;-40
2024/03/13 08:35:41;;;;;;;31.92;21.52;;;;;;;10.21;100.00;101450.50;5075973;28;20008;-39
2024/03/13 08:38:08;;;;;;;34.83;21.50;;;;;;;10.28;100.00;101464.00;5075385;28;20107;-39
2024/03/13 08:40:34;;;;;;;34.70;22.05;;;;;;;10.28;100.00;101467.53;5075676;28;20027;-39
2024/03/13 08:42:59;;;;;;;35.10;22.35;;;;;;;10.26;100.00;101463.41;5075268;28;20017;-41
2024/03/13 08:45:28;;;;;;;32.85;21.85;;;;;;;10.28;100.00;101462.13;5076128;28;20025;-40
2024/03/13 08:47:53;;;;;;;35.63;22.27;;;;;;;10.36;100.00;101474.59;5075320;28;20384;-39
2024/03/13 08:50:19;;;;;;;35.30;22.85;;;;;;;10.38;100.00;101472.50;5076347;28;20024;-39
2024/03/13 08:52:45;;;;;;;35.05;23.27;;;;;;;10.36;100.00;101468.34;5075122;28;20091;-39
2024/03/13 08:55:10;;;;;;;35.60;22.40;;;;;;;10.35;100.00;101472.94;5075022;28;20048;-39
2024/03/13 08:57:36;;;;;;;33.50;22.83;;;;;;;10.43;100.00;101483.50;5075449;28;20060;-39
2024/03/13 09:00:03;;;;;;;36.13;23.23;;;;;;;10.41;100.00;101485.59;5075376;28;20028;-39
2024/03/13 09:02:29;;;;;;;36.75;24.67;;;;;;;10.43;100.00;101479.97;5075251;28;20024;-39
2024/03/13 09:04:54;;;;;;;42.30;27.35;;;;;;;10.44;100.00;101490.59;5075832;28;20028;-39
2024/03/13 09:07:20;;;;;;;31.48;24.23;;;;;;;10.47;100.00;101484.72;5075961;28;20085;-39
2024/03/13 09:09:45;;;;;;;35.42;23.65;;;;;;;10.51;100.00;101485.13;5075705;28;20029;-39
2024/03/13 09:12:13;;;;;;;34.60;25.37;;;;;;;10.52;100.00;101484.91;5075701;28;20328;-39
2024/03/13 09:14:39;;;;;;;37.15;24.98;;;;;;;10.53;100.00;101489.25;5075596;28;20456;-40
2024/03/13 09:17:05;;;;;;;33.72;24.17;;;;;;;10.56;100.00;101490.72;5075336;28;20058;-40
2024/03/13 09:19:33;;;;;;;36.53;24.30;;;;;;;10.57;100.00;101495.09;5074995;28;20031;-40
2024/03/13 09:21:59;;;;;;;37.63;24.25;;;;;;;10.53;100.00;101491.16;5074979;28;20159;-40
2024/03/13 09:24:25;;;;;;;35.25;23.67;;;;;;;10.46;100.00;101487.66;5075513;28;20056;-40
2024/03/13 09:26:50;;;;;;;34.07;22.80;;;;;;;10.45;100.00;101488.72;5075056;28;20016;-40
2024/03/13 09:29:16;;;;;;;33.35;23.48;;;;;;;10.51;100.00;101499.47;5074789;28;20338;-40
2024/03/13 09:31:41;;;;;;;37.95;24.80;;;;;;;10.43;100.00;101491.59;5074696;28;20019;-39
2024/03/13 09:34:10;;;;;;;35.58;23.90;;;;;;;10.49;100.00;101492.63;5075343;28;20114;-39
2024/03/13 09:36:36;;;;;;;34.40;25.38;;;;;;;10.44;100.00;101492.44;5074476;28;20093;-39
2024/03/13 09:39:01;;;;;;;36.63;25.67;;;;;;;10.43;100.00;101494.31;5073768;28;20017;-39
2024/03/13 09:41:26;;;;;;;36.90;26.00;;;;;;;10.48;100.00;101507.19;5074574;28;20020;-39
2024/03/13 09:43:52;;;;;;;38.38;27.90;;;;;;;10.43;100.00;101496.19;5075290;28;20304;-39
2024/03/13 09:46:19;;;;;;;37.65;27.05;;;;;;;10.50;100.00;101507.81;5074950;28;20063;-39
2024/03/13 09:48:44;;;;;;;38.83;26.67;;;;;;;10.58;100.00;101516.50;5074126;28;20020;-39
2024/03/13 09:51:11;;;;;;;35.40;25.70;;;;;;;10.62;100.00;101507.97;5074287;28;20074;-39
2024/03/13 09:53:40;;;;;;;34.95;26.10;;;;;;;10.63;100.00;101506.91;5075084;28;20022;-39
2024/03/13 09:56:10;;;;;;;34.47;26.05;;;;;;;10.59;100.00;101501.13;5074460;28;20040;-39
2024/03/13 09:58:38;;;;;;;35.42;27.15;;;;;;;10.70;100.00;101510.44;5074995;28;20441;-39
2024/03/13 10:01:09;;;;;;;35.67;26.02;;;;;;;10.60;100.00;101491.13;5074600;28;20029;-39
2024/03/13 10:03:35;;;;;;;38.38;28.85;;;;;;;10.68;100.00;101499.81;5074073;28;20460;-39
2024/03/13 10:06:10;;;;;;;38.08;27.88;;;;;;;10.69;100.00;101501.50;5074464;28;20032;-39
2024/03/13 10:08:41;;;;;;;37.75;29.13;;;;;;;10.65;100.00;101505.66;5074294;28;20479;-39
2024/03/13 10:11:08;;;;;;;35.72;28.25;;;;;;;10.75;100.00;101518.72;5074072;28;20404;-40
2024/03/13 10:13:35;;;;;;;38.33;28.73;;;;;;;10.69;100.00;101517.72;5074221;28;20024;-40
2024/03/13 10:16:02;;;;;;;40.80;29.02;;;;;;;10.72;100.00;101528.09;5074305;28;20365;-40
2024/03/13 10:18:29;;;;;;;32.00;28.27;;;;;;;10.71;100.00;101525.59;5074177;28;20125;-40
2024/03/13 10:21:02;;;;;;;33.33;26.98;;;;;;;10.66;100.00;101522.72;5073802;28;20021;-40
2024/03/13 10:23:29;;;;;;;35.83;26.45;;;;;;;10.71;100.00;101531.84;5074581;28;20035;-40
2024/03/13 10:25:59;;;;;;;37.95;27.52;;;;;;;10.67;100.00;101518.97;5073433;28;20013;-40
2024/03/13 10:28:29;;;;;;;33.15;26.27;;;;;;;10.73;100.00;101532.44;5073700;28;20062;-40
2024/03/13 10:30:57;;;;;;;31.25;25.60;;;;;;;10.74;100.00;101533.31;5074033;28;20025;-40
2024/03/13 10:33:23;;;;;;;28.35;24.00;;;;;;;10.75;100.00;101529.56;5073325;28;20056;-40
2024/03/13 10:35:48;;;;;;;34.95;25.75;;;;;;;10.81;100.00;101528.69;5073921;28;20063;-40
2024/03/13 10:38:14;;;;;;;27.13;22.52;;;;;;;10.70;100.00;101516.66;5073593;28;20074;-40
2024/03/13 10:40:41;;;;;;;29.40;23.90;;;;;;;10.91;100.00;101544.44;5073631;28;20024;-39
2024/03/13 10:43:10;;;;;;;27.55;22.55;;;;;;;10.95;100.00;101535.69;5073218;28;20024;-39
2024/03/13 10:45:37;;;;;;;26.58;21.75;;;;;;;10.99;100.00;101538.78;5073506;28;20029;-39
2024/03/13 10:48:06;;;;;;;26.25;20.08;;;;;;;10.98;100.00;101523.59;5073831;28;20074;-39
2024/03/13 10:50:32;;;;;;;25.38;19.90;;;;;;;11.03;100.00;101530.03;5073305;28;20059;-39
2024/03/13 10:52:57;;;;;;;22.38;18.48;;;;;;;11.06;100.00;101524.16;5073762;28;20158;-39
2024/03/13 10:55:26;;;;;;;22.23;19.57;;;;;;;11.14;100.00;101527.69;5073512;28;20384;-39
2024/03/13 10:57:51;;;;;;;22.02;18.27;;;;;;;11.13;100.00;101534.13;5073113;28;20262;-39
2024/03/13 11:00:21;;;;;;;21.20;17.55;;;;;;;11.16;100.00;101525.56;5073139;28;20025;-39
2024/03/13 11:02:49;;;;;;;20.42;17.00;;;;;;;11.20;100.00;101534.91;5073348;28;20021;-39
2024/03/13 11:05:16;;;;;;;20.67;16.98;;;;;;;11.19;100.00;101533.25;5074137;28;20028;-39
2024/03/13 11:07:41;;;;;;;24.38;18.23;;;;;;;11.18;100.00;101532.44;5073300;28;20032;-39
2024/03/13 11:10:24;;;;;;;23.42;18.30;;;;;;;11.19;100.00;101533.25;5073665;28;20024;-39
2024/03/13 11:12:51;;;;;;;22.50;18.67;;;;;;;11.18;100.00;101531.59;5072974;28;20028;-39
2024/03/13 11:15:25;;;;;;;22.67;19.45;;;;;;;11.15;100.00;101521.22;5073704;28;20466;-39
2024/03/13 11:17:56;;;;;;;23.00;20.50;;;;;;;11.21;100.00;101533.84;5073255;28;20016;-40
2024/03/13 11:20:26;;;;;;;22.65;18.92;;;;;;;11.16;100.00;101517.44;5072756;28;20348;-39
2024/03/13 11:23:14;;;;;;;23.48;19.98;;;;;;;11.27;100.00;101532.97;5073163;28;20020;-39
2024/03/13 11:25:41;;;;;;;24.75;19.52;;;;;;;11.18;100.00;101523.50;5073130;28;20107;-39
2024/03/13 11:28:19;;;;;;;25.52;19.50;;;;;;;11.25;100.00;101533.22;5073102;28;20099;-39